sensor_id;sensor_type;location;lat;lon;timestamp;pressure;altitude;pressure_sealevel;temperature;humidity
64019;BME280;66942;52.138;5.216;2023-12-22T00:02:44;100217.0;;;21.73;32.74
64019;BME280;66942;52.138;5.216;2023-12-22T00:04:21;100217.0;;;21.66;32.42
64019;BME280;66942;52.138;5.216;2023-12-22T00:05:57;100215.0;;;21.36;32.96
64019;BME280;66942;52.138;5.216;2023-12-22T00:09:09;100235.0;;;21.6;32.76
64019;BME280;66942;52.138;5.216;2023-12-22T00:10:45;100249.0;;;21.08;33.32
64019;BME280;66942;52.138;5.216;2023-12-22T00:12:21;100253.0;;;21.46;32.65
64019;BME280;66942;52.138;5.216;2023-12-22T00:15:33;100268.0;;;21.34;33.24
64019;BME280;66942;52.138;5.216;2023-12-22T00:17:10;100287.0;;;19.68;33.78
64019;BME280;66942;52.138;5.216;2023-12-22T00:18:46;100299.0;;;18.78;34.51
64019;BME280;66942;52.138;5.216;2023-12-22T00:20:22;100284.0;;;19.78;32.83
64019;BME280;66942;52.138;5.216;2023-12-22T00:23:34;100287.0;;;19.66;32.93
64019;BME280;66942;52.138;5.216;2023-12-22T00:25:10;100289.0;;;19.5;33.15
64019;BME280;66942;52.138;5.216;2023-12-22T00:26:46;100266.0;;;19.75;32.99
64019;BME280;66942;52.138;5.216;2023-12-22T00:29:58;100257.0;;;19.56;33.44
64019;BME280;66942;52.138;5.216;2023-12-22T00:31:34;100256.0;;;18.77;34.94
64019;BME280;66942;52.138;5.216;2023-12-22T00:33:10;100264.0;;;19.52;33.58
64019;BME280;66942;52.138;5.216;2023-12-22T00:36:23;100285.0;;;18.71;34.85
64019;BME280;66942;52.138;5.216;2023-12-22T00:37:59;100269.0;;;18.38;36.01
64019;BME280;66942;52.138;5.216;2023-12-22T00:39:35;100259.0;;;20.09;33.24
64019;BME280;66942;52.138;5.216;2023-12-22T00:41:11;100261.0;;;20.23;33.33
64019;BME280;66942;52.138;5.216;2023-12-22T00:44:23;100251.0;;;20.13;33.46
64019;BME280;66942;52.138;5.216;2023-12-22T00:45:59;100259.0;;;19.95;33.74
64019;BME280;66942;52.138;5.216;2023-12-22T00:47:36;100256.0;;;19.63;34.12
64019;BME280;66942;52.138;5.216;2023-12-22T00:50:48;100258.0;;;20.41;33.37
64019;BME280;66942;52.138;5.216;2023-12-22T00:52:24;100269.0;;;20.13;33.64
64019;BME280;66942;52.138;5.216;2023-12-22T00:54:00;100272.0;;;20.28;33.65
64019;BME280;66942;52.138;5.216;2023-12-22T00:57:12;100288.0;;;20.09;34.17
64019;BME280;66942;52.138;5.216;2023-12-22T00:58:49;100280.0;;;19.66;34.61
64019;BME280;66942;52.138;5.216;2023-12-22T01:00:28;100275.0;;;20.83;33.21
64019;BME280;66942;52.138;5.216;2023-12-22T01:03:40;100278.0;;;20.78;33.42
64019;BME280;66942;52.138;5.216;2023-12-22T01:05:17;100272.0;;;20.25;34.04
64019;BME280;66942;52.138;5.216;2023-12-22T01:06:53;100275.0;;;19.97;34.72
64019;BME280;66942;52.138;5.216;2023-12-22T01:08:29;100297.0;;;19.55;34.86
64019;BME280;66942;52.138;5.216;2023-12-22T01:11:42;100292.0;;;20.02;34.5
64019;BME280;66942;52.138;5.216;2023-12-22T01:13:18;100291.0;;;20.04;34.62
64019;BME280;66942;52.138;5.216;2023-12-22T01:14:54;100298.0;;;19.22;35.74
64019;BME280;66942;52.138;5.216;2023-12-22T01:18:06;100286.0;;;19.88;34.92
64019;BME280;66942;52.138;5.216;2023-12-22T01:19:42;100283.0;;;20.49;33.78
64019;BME280;66942;52.138;5.216;2023-12-22T01:21:19;100295.0;;;20.8;33.36
64019;BME280;66942;52.138;5.216;2023-12-22T01:24:34;100298.0;;;20.43;33.74
64019;BME280;66942;52.138;5.216;2023-12-22T01:26:10;100289.0;;;20.67;33.53
64019;BME280;66942;52.138;5.216;2023-12-22T01:27:46;100298.0;;;21.19;32.8
64019;BME280;66942;52.138;5.216;2023-12-22T01:29:22;100293.0;;;21.26;32.93
64019;BME280;66942;52.138;5.216;2023-12-22T01:32:34;100293.0;;;21.34;32.9
64019;BME280;66942;52.138;5.216;2023-12-22T01:34:10;100288.0;;;21.25;32.99
64019;BME280;66942;52.138;5.216;2023-12-22T01:35:46;100292.0;;;21.35;32.89
64019;BME280;66942;52.138;5.216;2023-12-22T01:38:59;100299.0;;;21.31;32.75
64019;BME280;66942;52.138;5.216;2023-12-22T01:40:35;100298.0;;;21.41;32.67
64019;BME280;66942;52.138;5.216;2023-12-22T01:42:11;100290.0;;;21.07;33.1
64019;BME280;66942;52.138;5.216;2023-12-22T01:45:26;100292.0;;;21.14;33.03
64019;BME280;66942;52.138;5.216;2023-12-22T01:47:03;100294.0;;;21.36;32.69
64019;BME280;66942;52.138;5.216;2023-12-22T01:48:39;100296.0;;;21.31;32.71
64019;BME280;66942;52.138;5.216;2023-12-22T01:50:16;100303.0;;;21.44;32.6
64019;BME280;66942;52.138;5.216;2023-12-22T01:53:29;100293.0;;;21.14;33.12
64019;BME280;66942;52.138;5.216;2023-12-22T01:55:09;100278.0;;;21.1;32.92
64019;BME280;66942;52.138;5.216;2023-12-22T01:56:47;100285.0;;;21.27;33.1
64019;BME280;66942;52.138;5.216;2023-12-22T02:00:01;100274.0;;;21.2;33.35
64019;BME280;66942;52.138;5.216;2023-12-22T02:01:38;100284.0;;;21.06;33.51
64019;BME280;66942;52.138;5.216;2023-12-22T02:03:16;100291.0;;;20.94;33.82
64019;BME280;66942;52.138;5.216;2023-12-22T02:04:53;100295.0;;;21.36;33.05
64019;BME280;66942;52.138;5.216;2023-12-22T02:08:10;100289.0;;;21.42;32.78
64019;BME280;66942;52.138;5.216;2023-12-22T02:09:46;100288.0;;;21.15;33.11
64019;BME280;66942;52.138;5.216;2023-12-22T02:11:23;100289.0;;;21.03;33.0
64019;BME280;66942;52.138;5.216;2023-12-22T02:14:35;100292.0;;;21.31;32.96
64019;BME280;66942;52.138;5.216;2023-12-22T02:16:16;100288.0;;;21.24;32.9
64019;BME280;66942;52.138;5.216;2023-12-22T02:18:01;100287.0;;;21.19;32.93
64019;BME280;66942;52.138;5.216;2023-12-22T02:19:41;100295.0;;;21.41;32.53
64019;BME280;66942;52.138;5.216;2023-12-22T02:22:54;100283.0;;;21.08;32.64
64019;BME280;66942;52.138;5.216;2023-12-22T02:24:30;100277.0;;;20.05;34.15
64019;BME280;66942;52.138;5.216;2023-12-22T02:26:12;100278.0;;;20.75;33.1
64019;BME280;66942;52.138;5.216;2023-12-22T02:27:57;100267.0;;;21.17;32.81
64019;BME280;66942;52.138;5.216;2023-12-22T02:31:25;100261.0;;;20.91;33.06
64019;BME280;66942;52.138;5.216;2023-12-22T02:33:12;100264.0;;;20.78;33.17
64019;BME280;66942;52.138;5.216;2023-12-22T02:34:53;100260.0;;;20.96;32.47
64019;BME280;66942;52.138;5.216;2023-12-22T02:36:32;100259.0;;;21.08;32.54
64019;BME280;66942;52.138;5.216;2023-12-22T02:39:49;100259.0;;;20.96;32.62
64019;BME280;66942;52.138;5.216;2023-12-22T02:41:26;100253.0;;;20.54;32.92
64019;BME280;66942;52.138;5.216;2023-12-22T02:43:02;100260.0;;;20.58;32.78
64019;BME280;66942;52.138;5.216;2023-12-22T02:44:39;100258.0;;;20.22;32.85
64019;BME280;66942;52.138;5.216;2023-12-22T02:47:51;100248.0;;;21.0;32.17
64019;BME280;66942;52.138;5.216;2023-12-22T02:49:27;100249.0;;;20.9;32.37
64019;BME280;66942;52.138;5.216;2023-12-22T02:51:04;100252.0;;;20.48;32.43
64019;BME280;66942;52.138;5.216;2023-12-22T02:54:16;100256.0;;;20.86;31.88
64019;BME280;66942;52.138;5.216;2023-12-22T02:55:52;100255.0;;;20.67;31.85
64019;BME280;66942;52.138;5.216;2023-12-22T02:57:28;100246.0;;;20.28;32.76
64019;BME280;66942;52.138;5.216;2023-12-22T03:00:41;100251.0;;;21.42;31.56
64019;BME280;66942;52.138;5.216;2023-12-22T03:02:17;100258.0;;;21.19;31.8
64019;BME280;66942;52.138;5.216;2023-12-22T03:03:53;100255.0;;;21.32;32.1
64019;BME280;66942;52.138;5.216;2023-12-22T03:07:05;100262.0;;;20.71;32.0
64019;BME280;66942;52.138;5.216;2023-12-22T03:08:41;100252.0;;;21.23;31.38
64019;BME280;66942;52.138;5.216;2023-12-22T03:10:17;100263.0;;;20.66;31.52
64019;BME280;66942;52.138;5.216;2023-12-22T03:11:53;100268.0;;;20.83;32.1
64019;BME280;66942;52.138;5.216;2023-12-22T03:15:07;100282.0;;;20.63;31.65
64019;BME280;66942;52.138;5.216;2023-12-22T03:16:43;100285.0;;;20.77;31.37
64019;BME280;66942;52.138;5.216;2023-12-22T03:18:19;100263.0;;;20.64;31.4
64019;BME280;66942;52.138;5.216;2023-12-22T03:21:31;100265.0;;;20.65;31.03
64019;BME280;66942;52.138;5.216;2023-12-22T03:23:07;100252.0;;;21.77;30.29
64019;BME280;66942;52.138;5.216;2023-12-22T03:24:43;100255.0;;;21.59;30.3
64019;BME280;66942;52.138;5.216;2023-12-22T03:27:56;100269.0;;;21.15;30.3
64019;BME280;66942;52.138;5.216;2023-12-22T03:29:32;100260.0;;;21.66;30.02
64019;BME280;66942;52.138;5.216;2023-12-22T03:31:08;100271.0;;;21.66;29.95
64019;BME280;66942;52.138;5.216;2023-12-22T03:34:20;100264.0;;;21.5;30.24
64019;BME280;66942;52.138;5.216;2023-12-22T03:35:56;100267.0;;;21.64;30.28
64019;BME280;66942;52.138;5.216;2023-12-22T03:37:32;100264.0;;;21.84;30.33
64019;BME280;66942;52.138;5.216;2023-12-22T03:39:08;100257.0;;;21.58;30.31
64019;BME280;66942;52.138;5.216;2023-12-22T03:42:21;100255.0;;;21.65;30.49
64019;BME280;66942;52.138;5.216;2023-12-22T03:43:57;100264.0;;;21.19;31.08
64019;BME280;66942;52.138;5.216;2023-12-22T03:45:34;100272.0;;;21.56;31.23
64019;BME280;66942;52.138;5.216;2023-12-22T03:48:49;100271.0;;;21.93;30.73
64019;BME280;66942;52.138;5.216;2023-12-22T03:50:25;100276.0;;;21.22;31.42
64019;BME280;66942;52.138;5.216;2023-12-22T03:52:01;100283.0;;;21.92;30.71
64019;BME280;66942;52.138;5.216;2023-12-22T03:55:14;100293.0;;;21.42;30.54
64019;BME280;66942;52.138;5.216;2023-12-22T03:56:50;100298.0;;;21.66;30.98
64019;BME280;66942;52.138;5.216;2023-12-22T03:58:31;100293.0;;;22.13;30.3
64019;BME280;66942;52.138;5.216;2023-12-22T04:00:08;100286.0;;;21.89;30.05
64019;BME280;66942;52.138;5.216;2023-12-22T04:03:20;100284.0;;;21.46;30.4
64019;BME280;66942;52.138;5.216;2023-12-22T04:04:56;100296.0;;;22.02;30.29
64019;BME280;66942;52.138;5.216;2023-12-22T04:06:32;100299.0;;;21.65;30.42
64019;BME280;66942;52.138;5.216;2023-12-22T04:09:44;100290.0;;;21.25;30.49
64019;BME280;66942;52.138;5.216;2023-12-22T04:11:20;100293.0;;;22.05;30.26
64019;BME280;66942;52.138;5.216;2023-12-22T04:12:57;100299.0;;;21.76;30.27
64019;BME280;66942;52.138;5.216;2023-12-22T04:16:09;100300.0;;;21.75;30.38
64019;BME280;66942;52.138;5.216;2023-12-22T04:17:45;100302.0;;;21.92;30.09
64019;BME280;66942;52.138;5.216;2023-12-22T04:19:21;100308.0;;;21.84;30.55
64019;BME280;66942;52.138;5.216;2023-12-22T04:20:58;100305.0;;;21.99;30.24
64019;BME280;66942;52.138;5.216;2023-12-22T04:24:10;100297.0;;;21.95;30.47
64019;BME280;66942;52.138;5.216;2023-12-22T04:25:47;100307.0;;;21.95;30.72
64019;BME280;66942;52.138;5.216;2023-12-22T04:27:22;100308.0;;;21.91;30.37
64019;BME280;66942;52.138;5.216;2023-12-22T04:30:35;100302.0;;;21.89;30.49
64019;BME280;66942;52.138;5.216;2023-12-22T04:32:11;100293.0;;;22.0;30.0
64019;BME280;66942;52.138;5.216;2023-12-22T04:33:47;100305.0;;;21.55;30.43
64019;BME280;66942;52.138;5.216;2023-12-22T04:36:59;100300.0;;;22.01;30.17
64019;BME280;66942;52.138;5.216;2023-12-22T04:38:35;100305.0;;;21.81;30.46
64019;BME280;66942;52.138;5.216;2023-12-22T04:40:12;100298.0;;;21.51;30.57
64019;BME280;66942;52.138;5.216;2023-12-22T04:41:47;100289.0;;;21.79;29.93
64019;BME280;66942;52.138;5.216;2023-12-22T04:45:03;100291.0;;;21.78;30.08
64019;BME280;66942;52.138;5.216;2023-12-22T04:46:40;100301.0;;;21.74;29.74
64019;BME280;66942;52.138;5.216;2023-12-22T04:48:16;100299.0;;;21.13;29.77
64019;BME280;66942;52.138;5.216;2023-12-22T04:51:28;100301.0;;;21.96;29.26
64019;BME280;66942;52.138;5.216;2023-12-22T04:53:04;100311.0;;;22.24;29.46
64019;BME280;66942;52.138;5.216;2023-12-22T04:54:40;100310.0;;;22.3;29.54
64019;BME280;66942;52.138;5.216;2023-12-22T04:57:53;100317.0;;;21.14;30.0
64019;BME280;66942;52.138;5.216;2023-12-22T04:59:29;100303.0;;;21.83;29.81
64019;BME280;66942;52.138;5.216;2023-12-22T05:01:05;100306.0;;;22.56;28.88
64019;BME280;66942;52.138;5.216;2023-12-22T05:04:17;100312.0;;;22.36;29.29
64019;BME280;66942;52.138;5.216;2023-12-22T05:05:57;100306.0;;;21.98;30.04
64019;BME280;66942;52.138;5.216;2023-12-22T05:07:32;100312.0;;;21.68;30.45
64019;BME280;66942;52.138;5.216;2023-12-22T05:09:08;100300.0;;;21.96;30.37
64019;BME280;66942;52.138;5.216;2023-12-22T05:12:21;100309.0;;;22.45;29.83
64019;BME280;66942;52.138;5.216;2023-12-22T05:13:57;100305.0;;;22.18;30.12
64019;BME280;66942;52.138;5.216;2023-12-22T05:15:33;100302.0;;;22.63;29.86
64019;BME280;66942;52.138;5.216;2023-12-22T05:18:46;100302.0;;;22.08;29.87
64019;BME280;66942;52.138;5.216;2023-12-22T05:20:22;100305.0;;;22.64;29.39
64019;BME280;66942;52.138;5.216;2023-12-22T05:21:58;100299.0;;;22.14;30.7
64019;BME280;66942;52.138;5.216;2023-12-22T05:25:12;100291.0;;;22.46;29.92
64019;BME280;66942;52.138;5.216;2023-12-22T05:26:49;100289.0;;;22.97;29.38
64019;BME280;66942;52.138;5.216;2023-12-22T05:28:25;100294.0;;;21.85;30.01
64019;BME280;66942;52.138;5.216;2023-12-22T05:30:01;100298.0;;;22.16;29.48
64019;BME280;66942;52.138;5.216;2023-12-22T05:33:14;100299.0;;;22.69;29.01
64019;BME280;66942;52.138;5.216;2023-12-22T05:34:50;100301.0;;;22.4;29.36
64019;BME280;66942;52.138;5.216;2023-12-22T05:36:26;100288.0;;;22.37;29.01
64019;BME280;66942;52.138;5.216;2023-12-22T05:39:39;100293.0;;;23.0;28.81
64019;BME280;66942;52.138;5.216;2023-12-22T05:41:15;100295.0;;;23.04;28.9
64019;BME280;66942;52.138;5.216;2023-12-22T05:42:51;100284.0;;;23.03;28.81
64019;BME280;66942;52.138;5.216;2023-12-22T05:46:03;100296.0;;;22.52;29.2
64019;BME280;66942;52.138;5.216;2023-12-22T05:47:39;100294.0;;;22.89;29.19
64019;BME280;66942;52.138;5.216;2023-12-22T05:49:15;100297.0;;;23.07;28.8
64019;BME280;66942;52.138;5.216;2023-12-22T05:50:51;100293.0;;;23.24;28.74
64019;BME280;66942;52.138;5.216;2023-12-22T05:54:04;100298.0;;;23.21;28.84
64019;BME280;66942;52.138;5.216;2023-12-22T05:55:41;100288.0;;;22.26;29.94
64019;BME280;66942;52.138;5.216;2023-12-22T05:57:17;100287.0;;;23.17;29.25
64019;BME280;66942;52.138;5.216;2023-12-22T06:00:29;100290.0;;;22.84;29.71
64019;BME280;66942;52.138;5.216;2023-12-22T06:02:05;100296.0;;;22.77;29.77
64019;BME280;66942;52.138;5.216;2023-12-22T06:03:41;100298.0;;;22.46;30.19
64019;BME280;66942;52.138;5.216;2023-12-22T06:06:54;100301.0;;;22.17;30.66
64019;BME280;66942;52.138;5.216;2023-12-22T06:08:30;100308.0;;;22.64;30.48
64019;BME280;66942;52.138;5.216;2023-12-22T06:10:07;100299.0;;;22.62;30.24
64019;BME280;66942;52.138;5.216;2023-12-22T06:13:22;100300.0;;;22.61;30.0
64019;BME280;66942;52.138;5.216;2023-12-22T06:14:58;100296.0;;;22.81;29.95
64019;BME280;66942;52.138;5.216;2023-12-22T06:16:34;100302.0;;;23.32;29.48
64019;BME280;66942;52.138;5.216;2023-12-22T06:18:11;100303.0;;;23.41;29.53
64019;BME280;66942;52.138;5.216;2023-12-22T06:21:23;100317.0;;;23.34;29.72
64019;BME280;66942;52.138;5.216;2023-12-22T06:22:59;100316.0;;;22.68;30.29
64019;BME280;66942;52.138;5.216;2023-12-22T06:24:35;100319.0;;;22.57;30.58
64019;BME280;66942;52.138;5.216;2023-12-22T06:27:47;100318.0;;;22.64;30.57
64019;BME280;66942;52.138;5.216;2023-12-22T06:29:23;100313.0;;;22.81;30.19
64019;BME280;66942;52.138;5.216;2023-12-22T06:30:59;100311.0;;;23.06;29.76
64019;BME280;66942;52.138;5.216;2023-12-22T06:34:12;100306.0;;;23.37;29.4
64019;BME280;66942;52.138;5.216;2023-12-22T06:35:48;100314.0;;;23.21;29.78
64019;BME280;66942;52.138;5.216;2023-12-22T06:37:24;100314.0;;;23.13;29.48
64019;BME280;66942;52.138;5.216;2023-12-22T06:39:00;100315.0;;;23.16;29.28
64019;BME280;66942;52.138;5.216;2023-12-22T06:42:13;100298.0;;;22.44;30.37
64019;BME280;66942;52.138;5.216;2023-12-22T06:43:50;100301.0;;;23.13;29.69
64019;BME280;66942;52.138;5.216;2023-12-22T06:45:25;100297.0;;;22.94;29.91
64019;BME280;66942;52.138;5.216;2023-12-22T06:48:38;100307.0;;;23.16;29.8
64019;BME280;66942;52.138;5.216;2023-12-22T06:50:14;100299.0;;;23.11;29.93
64019;BME280;66942;52.138;5.216;2023-12-22T06:51:50;100305.0;;;22.96;30.21
64019;BME280;66942;52.138;5.216;2023-12-22T06:55:02;100299.0;;;23.1;30.16
64019;BME280;66942;52.138;5.216;2023-12-22T06:56:38;100298.0;;;23.0;30.19
64019;BME280;66942;52.138;5.216;2023-12-22T06:58:14;100291.0;;;23.38;29.89
64019;BME280;66942;52.138;5.216;2023-12-22T07:01:27;100290.0;;;23.24;30.26
64019;BME280;66942;52.138;5.216;2023-12-22T07:03:05;100296.0;;;23.72;29.73
64019;BME280;66942;52.138;5.216;2023-12-22T07:05:02;100298.0;;;23.45;29.88
64019;BME280;66942;52.138;5.216;2023-12-22T07:07:17;100294.0;;;22.59;30.93
64019;BME280;66942;52.138;5.216;2023-12-22T07:08:57;100298.0;;;22.61;30.89
64019;BME280;66942;52.138;5.216;2023-12-22T07:11:06;100284.0;;;23.24;30.31
64019;BME280;66942;52.138;5.216;2023-12-22T07:12:42;100288.0;;;22.95;30.7
64019;BME280;66942;52.138;5.216;2023-12-22T07:15:55;100289.0;;;23.06;30.74
64019;BME280;66942;52.138;5.216;2023-12-22T07:17:31;100295.0;;;22.99;30.63
64019;BME280;66942;52.138;5.216;2023-12-22T07:19:10;100274.0;;;22.9;30.69
64019;BME280;66942;52.138;5.216;2023-12-22T07:20:47;100289.0;;;22.96;30.53
64019;BME280;66942;52.138;5.216;2023-12-22T07:23:59;100302.0;;;23.12;30.34
64019;BME280;66942;52.138;5.216;2023-12-22T07:25:36;100294.0;;;23.53;29.76
64019;BME280;66942;52.138;5.216;2023-12-22T07:27:12;100291.0;;;23.71;29.57
64019;BME280;66942;52.138;5.216;2023-12-22T07:30:25;100302.0;;;23.57;29.91
64019;BME280;66942;52.138;5.216;2023-12-22T07:32:01;100298.0;;;23.73;29.73
64019;BME280;66942;52.138;5.216;2023-12-22T07:33:37;100308.0;;;23.68;29.88
64019;BME280;66942;52.138;5.216;2023-12-22T07:36:49;100307.0;;;23.47;30.48
64019;BME280;66942;52.138;5.216;2023-12-22T07:38:25;100307.0;;;23.51;30.89
64019;BME280;66942;52.138;5.216;2023-12-22T07:40:01;100297.0;;;22.91;31.76
64019;BME280;66942;52.138;5.216;2023-12-22T07:43:17;100290.0;;;22.56;33.04
64019;BME280;66942;52.138;5.216;2023-12-22T07:44:53;100283.0;;;23.12;32.08
64019;BME280;66942;52.138;5.216;2023-12-22T07:46:29;100272.0;;;23.5;31.68
64019;BME280;66942;52.138;5.216;2023-12-22T07:48:05;100270.0;;;23.49;31.94
64019;BME280;66942;52.138;5.216;2023-12-22T07:51:17;100265.0;;;23.52;31.73
64019;BME280;66942;52.138;5.216;2023-12-22T07:52:53;100273.0;;;23.67;31.73
64019;BME280;66942;52.138;5.216;2023-12-22T07:54:29;100282.0;;;23.62;31.98
64019;BME280;66942;52.138;5.216;2023-12-22T07:57:42;100286.0;;;22.77;33.3
64019;BME280;66942;52.138;5.216;2023-12-22T07:59:18;100296.0;;;23.25;32.37
64019;BME280;66942;52.138;5.216;2023-12-22T08:00:54;100288.0;;;22.49;33.89
64019;BME280;66942;52.138;5.216;2023-12-22T08:04:06;100292.0;;;22.7;33.65
64019;BME280;66942;52.138;5.216;2023-12-22T08:05:42;100293.0;;;22.57;33.78
64019;BME280;66942;52.138;5.216;2023-12-22T08:07:17;100295.0;;;22.46;34.25
64019;BME280;66942;52.138;5.216;2023-12-22T08:08:53;100307.0;;;23.24;33.15
64019;BME280;66942;52.138;5.216;2023-12-22T08:12:07;100300.0;;;22.33;34.39
64019;BME280;66942;52.138;5.216;2023-12-22T08:13:43;100305.0;;;22.58;34.11
64019;BME280;66942;52.138;5.216;2023-12-22T08:15:22;100302.0;;;23.17;33.5
64019;BME280;66942;52.138;5.216;2023-12-22T08:18:34;100303.0;;;23.15;33.51
64019;BME280;66942;52.138;5.216;2023-12-22T08:20:11;100305.0;;;23.19;33.33
64019;BME280;66942;52.138;5.216;2023-12-22T08:21:46;100296.0;;;23.62;32.71
64019;BME280;66942;52.138;5.216;2023-12-22T08:24:59;100293.0;;;23.4;32.92
64019;BME280;66942;52.138;5.216;2023-12-22T08:26:38;100301.0;;;22.96;33.6
64019;BME280;66942;52.138;5.216;2023-12-22T08:28:14;100290.0;;;22.65;34.03
64019;BME280;66942;52.138;5.216;2023-12-22T08:29:49;100292.0;;;23.11;33.32
64019;BME280;66942;52.138;5.216;2023-12-22T08:33:02;100283.0;;;23.63;32.6
64019;BME280;66942;52.138;5.216;2023-12-22T08:34:38;100277.0;;;23.33;33.21
64019;BME280;66942;52.138;5.216;2023-12-22T08:36:14;100264.0;;;23.1;33.72
64019;BME280;66942;52.138;5.216;2023-12-22T08:39:27;100263.0;;;23.68;32.82
64019;BME280;66942;52.138;5.216;2023-12-22T08:41:03;100273.0;;;23.21;33.49
64019;BME280;66942;52.138;5.216;2023-12-22T08:42:39;100264.0;;;22.79;34.69
64019;BME280;66942;52.138;5.216;2023-12-22T08:45:51;100268.0;;;22.71;34.74
64019;BME280;66942;52.138;5.216;2023-12-22T08:47:27;100257.0;;;22.53;35.31
64019;BME280;66942;52.138;5.216;2023-12-22T08:49:03;100266.0;;;22.88;34.65
64019;BME280;66942;52.138;5.216;2023-12-22T08:52:16;100256.0;;;23.16;34.49
64019;BME280;66942;52.138;5.216;2023-12-22T08:53:52;100260.0;;;23.11;34.62
64019;BME280;66942;52.138;5.216;2023-12-22T08:55:29;100261.0;;;23.37;34.32
64019;BME280;66942;52.138;5.216;2023-12-22T08:57:05;100263.0;;;23.55;33.99
64019;BME280;66942;52.138;5.216;2023-12-22T09:00:17;100268.0;;;23.0;35.06
64019;BME280;66942;52.138;5.216;2023-12-22T09:01:53;100261.0;;;23.36;34.46
64019;BME280;66942;52.138;5.216;2023-12-22T09:03:33;100264.0;;;23.22;34.78
64019;BME280;66942;52.138;5.216;2023-12-22T09:06:46;100266.0;;;23.69;33.8
64019;BME280;66942;52.138;5.216;2023-12-22T09:08:22;100289.0;;;23.12;34.93
64019;BME280;66942;52.138;5.216;2023-12-22T09:09:58;100274.0;;;23.17;34.6
64019;BME280;66942;52.138;5.216;2023-12-22T09:13:15;100260.0;;;23.06;34.53
64019;BME280;66942;52.138;5.216;2023-12-22T09:14:51;100270.0;;;22.94;34.71
64019;BME280;66942;52.138;5.216;2023-12-22T09:16:27;100278.0;;;23.06;34.35
64019;BME280;66942;52.138;5.216;2023-12-22T09:18:03;100281.0;;;22.28;35.21
64019;BME280;66942;52.138;5.216;2023-12-22T09:21:16;100290.0;;;23.05;34.39
64019;BME280;66942;52.138;5.216;2023-12-22T09:22:53;100286.0;;;22.52;34.01
64019;BME280;66942;52.138;5.216;2023-12-22T09:24:29;100276.0;;;22.53;34.24
64019;BME280;66942;52.138;5.216;2023-12-22T09:27:41;100278.0;;;22.75;33.35
64019;BME280;66942;52.138;5.216;2023-12-22T09:29:17;100277.0;;;22.77;33.42
64019;BME280;66942;52.138;5.216;2023-12-22T09:30:53;100300.0;;;22.83;33.25
64019;BME280;66942;52.138;5.216;2023-12-22T09:34:07;100285.0;;;23.33;32.71
64019;BME280;66942;52.138;5.216;2023-12-22T09:35:43;100277.0;;;22.84;33.32
64019;BME280;66942;52.138;5.216;2023-12-22T09:37:19;100274.0;;;23.22;32.76
64019;BME280;66942;52.138;5.216;2023-12-22T09:38:55;100278.0;;;23.25;32.85
64019;BME280;66942;52.138;5.216;2023-12-22T09:42:07;100274.0;;;23.4;32.79
64019;BME280;66942;52.138;5.216;2023-12-22T09:43:45;100265.0;;;23.39;32.79
64019;BME280;66942;52.138;5.216;2023-12-22T09:45:26;100271.0;;;23.4;33.12
64019;BME280;66942;52.138;5.216;2023-12-22T09:48:41;100262.0;;;23.66;33.21
64019;BME280;66942;52.138;5.216;2023-12-22T09:50:19;100274.0;;;23.26;34.19
64019;BME280;66942;52.138;5.216;2023-12-22T09:51:56;100263.0;;;22.51;36.31
64019;BME280;66942;52.138;5.216;2023-12-22T09:53:33;100268.0;;;22.95;35.96
64019;BME280;66942;52.138;5.216;2023-12-22T09:56:53;100274.0;;;22.92;36.24
64019;BME280;66942;52.138;5.216;2023-12-22T09:58:29;100274.0;;;23.49;34.82
64019;BME280;66942;52.138;5.216;2023-12-22T10:00:09;100267.0;;;23.33;35.32
64019;BME280;66942;52.138;5.216;2023-12-22T10:03:24;100275.0;;;23.69;34.75
64019;BME280;66942;52.138;5.216;2023-12-22T10:05:02;100280.0;;;23.91;34.5
64019;BME280;66942;52.138;5.216;2023-12-22T10:06:39;100272.0;;;24.0;34.32
64019;BME280;66942;52.138;5.216;2023-12-22T10:08:17;100272.0;;;23.9;34.44
64019;BME280;66942;52.138;5.216;2023-12-22T10:11:32;100284.0;;;23.65;34.83
64019;BME280;66942;52.138;5.216;2023-12-22T10:13:09;100277.0;;;23.4;35.15
64019;BME280;66942;52.138;5.216;2023-12-22T10:14:47;100273.0;;;23.96;34.51
64019;BME280;66942;52.138;5.216;2023-12-22T10:17:59;100277.0;;;23.73;34.87
64019;BME280;66942;52.138;5.216;2023-12-22T10:19:35;100271.0;;;24.49;33.64
64019;BME280;66942;52.138;5.216;2023-12-22T10:21:11;100276.0;;;23.39;35.21
64019;BME280;66942;52.138;5.216;2023-12-22T10:22:47;100275.0;;;23.88;34.6
64019;BME280;66942;52.138;5.216;2023-12-22T10:26:20;100286.0;;;23.98;34.35
64019;BME280;66942;52.138;5.216;2023-12-22T10:27:57;100288.0;;;23.9;34.47
64019;BME280;66942;52.138;5.216;2023-12-22T10:29:33;100285.0;;;24.55;33.67
64019;BME280;66942;52.138;5.216;2023-12-22T10:31:10;100290.0;;;23.72;34.33
64019;BME280;66942;52.138;5.216;2023-12-22T10:34:22;100285.0;;;23.63;34.74
64019;BME280;66942;52.138;5.216;2023-12-22T10:35:58;100288.0;;;24.47;33.69
64019;BME280;66942;52.138;5.216;2023-12-22T10:37:35;100291.0;;;24.68;33.3
64019;BME280;66942;52.138;5.216;2023-12-22T10:40:48;100290.0;;;24.21;34.01
64019;BME280;66942;52.138;5.216;2023-12-22T10:42:25;100295.0;;;23.27;34.89
64019;BME280;66942;52.138;5.216;2023-12-22T10:44:02;100305.0;;;23.73;34.49
64019;BME280;66942;52.138;5.216;2023-12-22T10:47:17;100291.0;;;24.53;33.82
64019;BME280;66942;52.138;5.216;2023-12-22T10:48:53;100288.0;;;24.13;34.18
64019;BME280;66942;52.138;5.216;2023-12-22T10:50:29;100292.0;;;24.38;33.94
64019;BME280;66942;52.138;5.216;2023-12-22T10:52:05;100294.0;;;23.81;34.69
64019;BME280;66942;52.138;5.216;2023-12-22T10:55:18;100293.0;;;23.94;34.17
64019;BME280;66942;52.138;5.216;2023-12-22T10:56:58;100277.0;;;24.39;33.74
64019;BME280;66942;52.138;5.216;2023-12-22T10:58:34;100296.0;;;24.05;33.99
64019;BME280;66942;52.138;5.216;2023-12-22T11:01:51;100299.0;;;23.84;34.57
64019;BME280;66942;52.138;5.216;2023-12-22T11:03:29;100295.0;;;24.31;33.74
64019;BME280;66942;52.138;5.216;2023-12-22T11:05:14;100289.0;;;23.86;34.08
64019;BME280;66942;52.138;5.216;2023-12-22T11:06:51;100278.0;;;23.17;34.78